sensor_id;sensor_type;location;lat;lon;timestamp;pressure;altitude;pressure_sealevel;temperature;humidity
69751;BME280;57335;52.288;6.056;2023-01-15T00:00:26;99711.31;;;6.36;100.00
69751;BME280;57335;52.288;6.056;2023-01-15T00:02:54;99715.88;;;6.41;100.00
69751;BME280;57335;52.288;6.056;2023-01-15T00:05:21;99716.91;;;6.40;100.00
69751;BME280;57335;52.288;6.056;2023-01-15T00:07:47;99717.09;;;6.38;100.00
69751;BME280;57335;52.288;6.056;2023-01-15T00:10:14;99714.94;;;6.35;100.00
69751;BME280;57335;52.288;6.056;2023-01-15T00:12:40;99716.91;;;6.33;100.00
69751;BME280;57335;52.288;6.056;2023-01-15T00:15:07;99723.13;;;6.32;100.00
69751;BME280;57335;52.288;6.056;2023-01-15T00:17:33;99723.34;;;6.31;100.00
69751;BME280;57335;52.288;6.056;2023-01-15T00:19:59;99710.75;;;6.28;100.00
69751;BME280;57335;52.288;6.056;2023-01-15T00:22:27;99721.53;;;6.31;100.00
69751;BME280;57335;52.288;6.056;2023-01-15T00:24:54;99721.75;;;6.30;100.00
69751;BME280;57335;52.288;6.056;2023-01-15T00:27:21;99713.00;;;6.17;100.00
69751;BME280;57335;52.288;6.056;2023-01-15T00:29:47;99724.56;;;6.28;100.00
69751;BME280;57335;52.288;6.056;2023-01-15T00:32:13;99712.16;;;6.24;100.00
69751;BME280;57335;52.288;6.056;2023-01-15T00:34:40;99723.75;;;6.28;100.00
69751;BME280;57335;52.288;6.056;2023-01-15T00:37:06;99722.16;;;6.27;100.00
69751;BME280;57335;52.288;6.056;2023-01-15T00:39:32;99711.56;;;6.15;100.00
69751;BME280;57335;52.288;6.056;2023-01-15T00:41:59;99725.78;;;6.26;100.00
69751;BME280;57335;52.288;6.056;2023-01-15T00:44:25;99730.97;;;6.26;100.00
69751;BME280;57335;52.288;6.056;2023-01-15T00:46:51;99724.16;;;6.25;100.00
69751;BME280;57335;52.288;6.056;2023-01-15T00:49:18;99715.97;;;6.21;100.00
69751;BME280;57335;52.288;6.056;2023-01-15T00:51:44;99720.78;;;6.17;100.00
69751;BME280;57335;52.288;6.056;2023-01-15T00:54:11;99731.56;;;6.21;100.00
69751;BME280;57335;52.288;6.056;2023-01-15T00:56:37;99737.59;;;6.22;100.00
69751;BME280;57335;52.288;6.056;2023-01-15T00:59:04;99726.97;;;6.16;100.00
69751;BME280;57335;52.288;6.056;2023-01-15T01:01:30;99718.19;;;6.17;100.00
69751;BME280;57335;52.288;6.056;2023-01-15T01:03:57;99729.34;;;6.25;100.00
69751;BME280;57335;52.288;6.056;2023-01-15T01:06:23;99733.78;;;6.24;100.00
69751;BME280;57335;52.288;6.056;2023-01-15T01:08:50;99728.16;;;6.21;100.00
69751;BME280;57335;52.288;6.056;2023-01-15T01:11:18;99732.97;;;6.24;100.00
69751;BME280;57335;52.288;6.056;2023-01-15T01:13:46;99735.00;;;6.22;100.00
69751;BME280;57335;52.288;6.056;2023-01-15T01:18:48;99720.59;;;6.12;100.00
69751;BME280;57335;52.288;6.056;2023-01-15T01:21:15;99743.19;;;6.18;100.00
69751;BME280;57335;52.288;6.056;2023-01-15T01:23:42;99751.78;;;6.19;100.00
69751;BME280;57335;52.288;6.056;2023-01-15T01:26:09;99724.97;;;6.18;100.00
69751;BME280;57335;52.288;6.056;2023-01-15T01:28:35;99724.97;;;6.18;100.00
69751;BME280;57335;52.288;6.056;2023-01-15T01:31:06;99732.78;;;6.18;100.00
69751;BME280;57335;52.288;6.056;2023-01-15T01:33:33;99737.00;;;6.19;100.00
69751;BME280;57335;52.288;6.056;2023-01-15T01:36:00;99715.41;;;6.06;100.00
69751;BME280;57335;52.288;6.056;2023-01-15T01:38:26;99742.59;;;6.16;100.00
69751;BME280;57335;52.288;6.056;2023-01-15T01:40:52;99739.00;;;6.11;100.00
69751;BME280;57335;52.288;6.056;2023-01-15T01:43:24;99748.81;;;6.15;100.00
69751;BME280;57335;52.288;6.056;2023-01-15T01:45:51;99739.59;;;6.13;100.00
69751;BME280;57335;52.288;6.056;2023-01-15T01:48:21;99746.81;;;6.17;100.00
69751;BME280;57335;52.288;6.056;2023-01-15T01:50:50;99740.59;;;6.12;100.00
69751;BME280;57335;52.288;6.056;2023-01-15T01:53:19;99745.00;;;6.11;100.00
69751;BME280;57335;52.288;6.056;2023-01-15T01:55:48;99747.00;;;6.16;100.00
69751;BME280;57335;52.288;6.056;2023-01-15T01:58:15;99736.59;;;6.09;100.00
69751;BME280;57335;52.288;6.056;2023-01-15T02:00:45;99754.22;;;6.14;100.00
69751;BME280;57335;52.288;6.056;2023-01-15T02:03:13;99751.59;;;6.07;100.00
69751;BME280;57335;52.288;6.056;2023-01-15T02:05:43;99744.19;;;6.11;100.00
69751;BME280;57335;52.288;6.056;2023-01-15T02:08:11;99747.78;;;6.16;100.00
69751;BME280;57335;52.288;6.056;2023-01-15T02:10:38;99728.19;;;6.07;100.00
69751;BME280;57335;52.288;6.056;2023-01-15T02:13:17;99736.59;;;6.09;100.00
69751;BME280;57335;52.288;6.056;2023-01-15T02:15:59;99748.22;;;6.13;100.00
69751;BME280;57335;52.288;6.056;2023-01-15T02:18:35;99725.00;;;6.05;100.00
69751;BME280;57335;52.288;6.056;2023-01-15T02:21:37;99751.59;;;6.14;100.00
69751;BME280;57335;52.288;6.056;2023-01-15T02:24:19;99735.00;;;6.08;100.00
69751;BME280;57335;52.288;6.056;2023-01-15T02:27:07;99741.59;;;6.11;100.00
69751;BME280;57335;52.288;6.056;2023-01-15T02:32:41;99739.78;;;6.11;100.00
69751;BME280;57335;52.288;6.056;2023-01-15T02:35:19;99744.81;;;6.06;100.00
69751;BME280;57335;52.288;6.056;2023-01-15T02:37:55;99742.22;;;6.06;100.00
69751;BME280;57335;52.288;6.056;2023-01-15T02:40:25;99730.41;;;5.97;99.88
69751;BME280;57335;52.288;6.056;2023-01-15T02:42:52;99740.44;;;6.00;99.45
69751;BME280;57335;52.288;6.056;2023-01-15T02:45:23;99733.03;;;5.97;99.84
69751;BME280;57335;52.288;6.056;2023-01-15T02:47:57;99728.63;;;6.04;99.64
69751;BME280;57335;52.288;6.056;2023-01-15T02:50:31;99729.59;;;6.03;99.62
69751;BME280;57335;52.288;6.056;2023-01-15T02:53:04;99731.22;;;6.04;99.48
69751;BME280;57335;52.288;6.056;2023-01-15T02:55:43;99725.63;;;6.01;98.50
69751;BME280;57335;52.288;6.056;2023-01-15T02:58:13;99715.22;;;6.01;99.16
69751;BME280;57335;52.288;6.056;2023-01-15T03:00:43;99708.81;;;5.90;98.57
69751;BME280;57335;52.288;6.056;2023-01-15T03:03:16;99713.59;;;5.93;98.20
69751;BME280;57335;52.288;6.056;2023-01-15T03:08:28;99727.03;;;5.96;97.91
69751;BME280;57335;52.288;6.056;2023-01-15T03:13:26;99724.44;;;5.96;97.85
69751;BME280;57335;52.288;6.056;2023-01-15T03:16:00;99717.59;;;5.89;97.58
69751;BME280;57335;52.288;6.056;2023-01-15T03:18:32;99706.59;;;5.87;97.76
69751;BME280;57335;52.288;6.056;2023-01-15T03:21:04;99704.63;;;5.82;97.42
69751;BME280;57335;52.288;6.056;2023-01-15T03:23:34;99712.41;;;5.89;97.35
69751;BME280;57335;52.288;6.056;2023-01-15T03:26:02;99707.63;;;5.86;97.12
69751;BME280;57335;52.288;6.056;2023-01-15T03:28:32;99703.44;;;5.78;97.31
69751;BME280;57335;52.288;6.056;2023-01-15T03:31:01;99708.59;;;5.85;97.91
69751;BME280;57335;52.288;6.056;2023-01-15T03:33:28;99710.63;;;5.83;97.56
69751;BME280;57335;52.288;6.056;2023-01-15T03:35:57;99714.81;;;5.77;97.64
69751;BME280;57335;52.288;6.056;2023-01-15T03:38:27;99706.41;;;5.75;97.90
69751;BME280;57335;52.288;6.056;2023-01-15T03:49:23;99702.84;;;5.69;97.17
69751;BME280;57335;52.288;6.056;2023-01-15T03:54:43;99697.84;;;5.74;97.90
69751;BME280;57335;52.288;6.056;2023-01-15T03:58:33;99713.44;;;5.74;97.17
69751;BME280;57335;52.288;6.056;2023-01-15T04:00:43;99706.63;;;5.80;97.71
69751;BME280;57335;52.288;6.056;2023-01-15T04:03:15;99710.03;;;5.80;97.69
69751;BME280;57335;52.288;6.056;2023-01-15T04:05:42;99697.63;;;5.76;96.58
69751;BME280;57335;52.288;6.056;2023-01-15T04:08:11;99694.44;;;5.74;96.42
69751;BME280;57335;52.288;6.056;2023-01-15T04:10:50;99694.66;;;5.66;96.12
69751;BME280;57335;52.288;6.056;2023-01-15T04:13:16;99701.63;;;5.65;95.98
69751;BME280;57335;52.288;6.056;2023-01-15T04:15:42;99711.44;;;5.70;96.29
69751;BME280;57335;52.288;6.056;2023-01-15T04:18:09;99703.25;;;5.66;95.65
69751;BME280;57335;52.288;6.056;2023-01-15T04:20:35;99701.44;;;5.67;96.12
69751;BME280;57335;52.288;6.056;2023-01-15T04:23:02;99696.44;;;5.58;95.88
69751;BME280;57335;52.288;6.056;2023-01-15T04:25:28;99712.22;;;5.57;95.73
69751;BME280;57335;52.288;6.056;2023-01-15T04:27:55;99700.25;;;5.56;96.03
69751;BME280;57335;52.288;6.056;2023-01-15T04:30:22;99704.25;;;5.58;96.14
69751;BME280;57335;52.288;6.056;2023-01-15T04:32:49;99699.47;;;5.55;95.93
69751;BME280;57335;52.288;6.056;2023-01-15T04:35:16;99708.66;;;5.58;96.48
69751;BME280;57335;52.288;6.056;2023-01-15T04:37:43;99702.06;;;5.55;96.22
69751;BME280;57335;52.288;6.056;2023-01-15T04:40:10;99702.44;;;5.52;96.42
69751;BME280;57335;52.288;6.056;2023-01-15T04:42:37;99715.66;;;5.57;96.53
69751;BME280;57335;52.288;6.056;2023-01-15T04:45:04;99697.44;;;5.51;96.18
69751;BME280;57335;52.288;6.056;2023-01-15T04:47:30;99702.63;;;5.51;96.07
69751;BME280;57335;52.288;6.056;2023-01-15T04:49:56;99715.25;;;5.54;96.35
69751;BME280;57335;52.288;6.056;2023-01-15T04:52:23;99701.06;;;5.50;96.33
69751;BME280;57335;52.288;6.056;2023-01-15T04:54:49;99709.44;;;5.52;96.63
69751;BME280;57335;52.288;6.056;2023-01-15T04:57:15;99697.47;;;5.44;96.24
69751;BME280;57335;52.288;6.056;2023-01-15T04:59:42;99706.84;;;5.52;96.39
69751;BME280;57335;52.288;6.056;2023-01-15T05:02:08;99699.66;;;5.54;96.29
69751;BME280;57335;52.288;6.056;2023-01-15T05:04:35;99695.84;;;5.56;96.66
69751;BME280;57335;52.288;6.056;2023-01-15T05:07:03;99689.25;;;5.54;96.20
69751;BME280;57335;52.288;6.056;2023-01-15T05:09:30;99683.44;;;5.58;96.53
69751;BME280;57335;52.288;6.056;2023-01-15T05:11:56;99690.66;;;5.50;95.80
69751;BME280;57335;52.288;6.056;2023-01-15T05:14:23;99700.84;;;5.58;96.80
69751;BME280;57335;52.288;6.056;2023-01-15T05:16:49;99712.66;;;5.54;96.42
69751;BME280;57335;52.288;6.056;2023-01-15T05:19:16;99697.47;;;5.57;97.99
69751;BME280;57335;52.288;6.056;2023-01-15T05:21:43;99703.66;;;5.56;99.50
69751;BME280;57335;52.288;6.056;2023-01-15T05:24:16;99698.63;;;5.55;100.00
69751;BME280;57335;52.288;6.056;2023-01-15T05:26:43;99696.06;;;5.48;100.00
69751;BME280;57335;52.288;6.056;2023-01-15T05:29:10;99694.47;;;5.47;100.00
69751;BME280;57335;52.288;6.056;2023-01-15T05:31:37;99712.66;;;5.47;100.00
69751;BME280;57335;52.288;6.056;2023-01-15T05:34:03;99710.44;;;5.44;100.00
69751;BME280;57335;52.288;6.056;2023-01-15T05:36:30;99718.25;;;5.37;100.00
69751;BME280;57335;52.288;6.056;2023-01-15T05:38:58;99697.06;;;5.34;100.00
69751;BME280;57335;52.288;6.056;2023-01-15T05:41:24;99679.66;;;5.28;100.00
69751;BME280;57335;52.288;6.056;2023-01-15T05:43:51;99675.28;;;5.28;100.00
69751;BME280;57335;52.288;6.056;2023-01-15T05:46:17;99663.50;;;5.26;100.00
69751;BME280;57335;52.288;6.056;2023-01-15T05:48:44;99689.47;;;5.26;100.00
69751;BME280;57335;52.288;6.056;2023-01-15T05:51:10;99673.66;;;5.20;100.00
69751;BME280;57335;52.288;6.056;2023-01-15T05:53:37;99690.03;;;5.21;100.00
69751;BME280;57335;52.288;6.056;2023-01-15T05:56:03;99675.06;;;5.16;100.00
69751;BME280;57335;52.288;6.056;2023-01-15T05:58:30;99686.25;;;5.17;100.00
69751;BME280;57335;52.288;6.056;2023-01-15T06:00:57;99701.44;;;5.20;100.00
69751;BME280;57335;52.288;6.056;2023-01-15T06:03:24;99708.81;;;5.23;100.00
69751;BME280;57335;52.288;6.056;2023-01-15T06:05:52;99700.03;;;5.24;100.00
69751;BME280;57335;52.288;6.056;2023-01-15T06:08:20;99696.25;;;5.20;100.00
69751;BME280;57335;52.288;6.056;2023-01-15T06:10:46;99674.66;;;5.13;100.00
69751;BME280;57335;52.288;6.056;2023-01-15T06:13:13;99684.47;;;5.17;100.00
69751;BME280;57335;52.288;6.056;2023-01-15T06:15:40;99667.47;;;5.08;100.00
69751;BME280;57335;52.288;6.056;2023-01-15T06:18:07;99690.66;;;5.10;100.00
69751;BME280;57335;52.288;6.056;2023-01-15T06:20:35;99689.25;;;5.07;100.00
69751;BME280;57335;52.288;6.056;2023-01-15T06:23:01;99677.25;;;4.99;100.00
69751;BME280;57335;52.288;6.056;2023-01-15T06:25:27;99689.22;;;5.00;100.00
69751;BME280;57335;52.288;6.056;2023-01-15T06:27:54;99677.22;;;4.93;100.00
69751;BME280;57335;52.288;6.056;2023-01-15T06:30:20;99685.44;;;4.90;100.00
69751;BME280;57335;52.288;6.056;2023-01-15T06:32:47;99696.00;;;4.88;100.00
69751;BME280;57335;52.288;6.056;2023-01-15T06:35:13;99690.22;;;4.86;100.00
69751;BME280;57335;52.288;6.056;2023-01-15T06:37:39;99689.81;;;4.89;100.00
69751;BME280;57335;52.288;6.056;2023-01-15T06:40:06;99679.41;;;4.83;100.00
69751;BME280;57335;52.288;6.056;2023-01-15T06:42:32;99692.19;;;4.91;100.00
69751;BME280;57335;52.288;6.056;2023-01-15T06:44:59;99689.00;;;4.89;100.00
69751;BME280;57335;52.288;6.056;2023-01-15T06:47:25;99680.63;;;4.87;100.00
69751;BME280;57335;52.288;6.056;2023-01-15T06:49:54;99674.63;;;4.86;100.00
69751;BME280;57335;52.288;6.056;2023-01-15T06:52:22;99668.44;;;4.80;100.00
69751;BME280;57335;52.288;6.056;2023-01-15T06:54:49;99683.81;;;4.89;100.00
69751;BME280;57335;52.288;6.056;2023-01-15T06:57:16;99684.41;;;4.84;100.00
69751;BME280;57335;52.288;6.056;2023-01-15T06:59:42;99681.22;;;4.82;98.82
69751;BME280;57335;52.288;6.056;2023-01-15T07:02:10;99686.22;;;4.84;98.55
69751;BME280;57335;52.288;6.056;2023-01-15T07:04:37;99685.38;;;4.76;97.67
69751;BME280;57335;52.288;6.056;2023-01-15T07:07:04;99687.38;;;4.74;97.32
69751;BME280;57335;52.288;6.056;2023-01-15T07:09:30;99678.78;;;4.67;97.13
69751;BME280;57335;52.288;6.056;2023-01-15T07:11:57;99679.56;;;4.61;96.65
69751;BME280;57335;52.288;6.056;2023-01-15T07:14:25;99684.91;;;4.53;95.39
69751;BME280;57335;52.288;6.056;2023-01-15T07:16:51;99673.72;;;4.46;95.85
69751;BME280;57335;52.288;6.056;2023-01-15T07:19:18;99684.91;;;4.46;94.59
69751;BME280;57335;52.288;6.056;2023-01-15T07:21:45;99688.28;;;4.47;94.45
69751;BME280;57335;52.288;6.056;2023-01-15T07:24:12;99671.69;;;4.34;94.88
69751;BME280;57335;52.288;6.056;2023-01-15T07:26:40;99680.06;;;4.36;95.03
69751;BME280;57335;52.288;6.056;2023-01-15T07:29:06;99679.25;;;4.29;95.86
69751;BME280;57335;52.288;6.056;2023-01-15T07:31:33;99693.81;;;4.30;96.15
69751;BME280;57335;52.288;6.056;2023-01-15T07:34:00;99683.22;;;4.25;97.13
69751;BME280;57335;52.288;6.056;2023-01-15T07:36:26;99690.41;;;4.23;97.91
69751;BME280;57335;52.288;6.056;2023-01-15T07:38:53;99688.97;;;4.20;98.86
69751;BME280;57335;52.288;6.056;2023-01-15T07:41:19;99689.75;;;4.14;98.99
69751;BME280;57335;52.288;6.056;2023-01-15T07:43:46;99697.75;;;4.19;99.97
69751;BME280;57335;52.288;6.056;2023-01-15T07:46:12;99680.41;;;4.20;100.00
69751;BME280;57335;52.288;6.056;2023-01-15T07:48:38;99688.00;;;4.22;100.00
69751;BME280;57335;52.288;6.056;2023-01-15T07:51:05;99689.38;;;4.17;100.00
69751;BME280;57335;52.288;6.056;2023-01-15T07:53:31;99698.78;;;4.25;100.00
69751;BME280;57335;52.288;6.056;2023-01-15T07:55:57;99699.59;;;4.26;100.00
69751;BME280;57335;52.288;6.056;2023-01-15T07:58:24;99703.75;;;4.27;100.00
69751;BME280;57335;52.288;6.056;2023-01-15T08:00:50;99699.59;;;4.26;100.00
69751;BME280;57335;52.288;6.056;2023-01-15T08:03:16;99684.41;;;4.23;100.00
69751;BME280;57335;52.288;6.056;2023-01-15T08:05:43;99689.22;;;4.26;100.00
69751;BME280;57335;52.288;6.056;2023-01-15T08:08:18;99682.41;;;4.25;100.00
69751;BME280;57335;52.288;6.056;2023-01-15T08:10:45;99670.47;;;4.24;100.00
69751;BME280;57335;52.288;6.056;2023-01-15T08:13:11;99674.03;;;4.23;100.00
69751;BME280;57335;52.288;6.056;2023-01-15T08:15:38;99669.06;;;4.21;100.00
69751;BME280;57335;52.288;6.056;2023-01-15T08:18:05;99663.66;;;4.23;100.00
69751;BME280;57335;52.288;6.056;2023-01-15T08:20:33;99670.06;;;4.27;100.00
69751;BME280;57335;52.288;6.056;2023-01-15T08:23:00;99665.25;;;4.24;99.92
69751;BME280;57335;52.288;6.056;2023-01-15T08:25:27;99662.88;;;4.29;99.44
69751;BME280;57335;52.288;6.056;2023-01-15T08:27:53;99661.13;;;4.36;99.33
69751;BME280;57335;52.288;6.056;2023-01-15T08:30:23;99667.34;;;4.42;98.78
69751;BME280;57335;52.288;6.056;2023-01-15T08:32:49;99666.75;;;4.46;98.65
69751;BME280;57335;52.288;6.056;2023-01-15T08:35:16;99662.94;;;4.49;98.39
69751;BME280;57335;52.288;6.056;2023-01-15T08:37:43;99667.75;;;4.52;98.92
69751;BME280;57335;52.288;6.056;2023-01-15T08:40:11;99668.38;;;4.60;98.22
69751;BME280;57335;52.288;6.056;2023-01-15T08:42:38;99677.97;;;4.67;98.20
69751;BME280;57335;52.288;6.056;2023-01-15T08:45:05;99669.63;;;4.71;98.40
69751;BME280;57335;52.288;6.056;2023-01-15T08:47:31;99681.59;;;4.79;97.60
69751;BME280;57335;52.288;6.056;2023-01-15T08:49:58;99672.63;;;4.82;97.32
69751;BME280;57335;52.288;6.056;2023-01-15T08:52:24;99666.84;;;4.86;96.52
69751;BME280;57335;52.288;6.056;2023-01-15T08:54:50;99679.25;;;4.97;97.00
69751;BME280;57335;52.288;6.056;2023-01-15T08:57:17;99663.25;;;4.94;95.78
69751;BME280;57335;52.288;6.056;2023-01-15T08:59:43;99665.06;;;5.00;95.67
69751;BME280;57335;52.288;6.056;2023-01-15T09:02:11;99657.88;;;5.02;94.67
69751;BME280;57335;52.288;6.056;2023-01-15T09:04:39;99654.50;;;5.02;95.03
69751;BME280;57335;52.288;6.056;2023-01-15T09:07:06;99659.91;;;5.13;94.06
69751;BME280;57335;52.288;6.056;2023-01-15T09:09:33;99657.50;;;5.12;94.49
69751;BME280;57335;52.288;6.056;2023-01-15T09:11:59;99677.88;;;5.22;93.68
69751;BME280;57335;52.288;6.056;2023-01-15T09:14:26;99661.47;;;5.14;93.67
69751;BME280;57335;52.288;6.056;2023-01-15T09:17:12;99676.66;;;5.31;93.93
69751;BME280;57335;52.288;6.056;2023-01-15T09:19:38;99674.47;;;5.41;93.76
69751;BME280;57335;52.288;6.056;2023-01-15T09:22:05;99666.88;;;5.46;92.79
69751;BME280;57335;52.288;6.056;2023-01-15T09:24:31;99677.66;;;5.56;92.02
69751;BME280;57335;52.288;6.056;2023-01-15T09:26:58;99662.03;;;5.63;91.80
69751;BME280;57335;52.288;6.056;2023-01-15T09:29:24;99657.84;;;5.75;91.00
69751;BME280;57335;52.288;6.056;2023-01-15T09:31:50;99650.63;;;5.84;90.53
69751;BME280;57335;52.288;6.056;2023-01-15T09:34:20;99639.59;;;5.89;90.41
69751;BME280;57335;52.288;6.056;2023-01-15T09:36:46;99644.59;;;5.97;89.25
69751;BME280;57335;52.288;6.056;2023-01-15T09:39:12;99649.00;;;5.96;88.18
69751;BME280;57335;52.288;6.056;2023-01-15T09:41:58;99659.19;;;6.05;88.08
69751;BME280;57335;52.288;6.056;2023-01-15T09:47:29;99665.59;;;6.02;87.51
69751;BME280;57335;52.288;6.056;2023-01-15T09:50:03;99667.22;;;5.96;88.12
69751;BME280;57335;52.288;6.056;2023-01-15T09:55:29;99672.03;;;5.99;87.81
69751;BME280;57335;52.288;6.056;2023-01-15T09:57:59;99666.44;;;5.96;86.18
69751;BME280;57335;52.288;6.056;2023-01-15T10:00:33;99674.78;;;6.05;87.96
69751;BME280;57335;52.288;6.056;2023-01-15T10:03:07;99669.56;;;6.11;87.15
69751;BME280;57335;52.288;6.056;2023-01-15T10:05:47;99670.16;;;6.20;86.48
69751;BME280;57335;52.288;6.056;2023-01-15T10:08:20;99664.72;;;6.28;86.41
69751;BME280;57335;52.288;6.056;2023-01-15T10:11:04;99675.28;;;6.40;86.19
69751;BME280;57335;52.288;6.056;2023-01-15T10:13:47;99659.22;;;6.50;85.33
69751;BME280;57335;52.288;6.056;2023-01-15T10:16:20;99659.38;;;6.55;85.77
69751;BME280;57335;52.288;6.056;2023-01-15T10:18:47;99660.78;;;6.57;84.08
69751;BME280;57335;52.288;6.056;2023-01-15T10:21:39;99668.56;;;6.64;84.69
69751;BME280;57335;52.288;6.056;2023-01-15T10:24:27;99660.91;;;6.69;83.43
69751;BME280;57335;52.288;6.056;2023-01-15T10:26:58;99657.09;;;6.72;84.92
69751;BME280;57335;52.288;6.056;2023-01-15T10:29:41;99669.16;;;6.91;84.64
69751;BME280;57335;52.288;6.056;2023-01-15T10:40:11;99677.34;;;7.27;83.38
69751;BME280;57335;52.288;6.056;2023-01-15T10:45:31;99691.06;;;7.41;83.28
69751;BME280;57335;52.288;6.056;2023-01-15T10:48:01;99680.91;;;7.32;84.13
69751;BME280;57335;52.288;6.056;2023-01-15T10:50:30;99678.03;;;7.15;85.10
69751;BME280;57335;52.288;6.056;2023-01-15T10:53:06;99665.97;;;6.96;87.42
69751;BME280;57335;52.288;6.056;2023-01-15T10:56:00;99659.19;;;6.88;86.86
69751;BME280;57335;52.288;6.056;2023-01-15T10:58:42;99660.19;;;6.87;87.46
69751;BME280;57335;52.288;6.056;2023-01-15T11:01:14;99664.19;;;6.90;86.88
69751;BME280;57335;52.288;6.056;2023-01-15T11:03:42;99654.38;;;6.85;87.02
69751;BME280;57335;52.288;6.056;2023-01-15T11:06:14;99673.78;;;6.96;86.14
69751;BME280;57335;52.288;6.056;2023-01-15T11:08:44;99670.13;;;7.04;86.29
69751;BME280;57335;52.288;6.056;2023-01-15T11:14:01;99669.59;;;7.20;85.46
69751;BME280;57335;52.288;6.056;2023-01-15T11:16:28;99669.72;;;7.25;84.40
69751;BME280;57335;52.288;6.056;2023-01-15T11:18:54;99670.31;;;7.27;82.42
69751;BME280;57335;52.288;6.056;2023-01-15T11:21:22;99677.13;;;7.28;83.51
69751;BME280;57335;52.288;6.056;2023-01-15T11:23:50;99694.72;;;7.33;84.04
69751;BME280;57335;52.288;6.056;2023-01-15T11:26:24;99696.66;;;7.44;84.67
69751;BME280;57335;52.288;6.056;2023-01-15T11:28:53;99680.31;;;7.55;84.49
69751;BME280;57335;52.288;6.056;2023-01-15T11:31:20;99666.19;;;7.63;81.84
69751;BME280;57335;52.288;6.056;2023-01-15T11:34:04;99674.91;;;7.75;81.12
69751;BME280;57335;52.288;6.056;2023-01-15T11:36:32;99685.13;;;7.77;81.04
69751;BME280;57335;52.288;6.056;2023-01-15T11:38:59;99689.69;;;7.82;81.02
69751;BME280;57335;52.288;6.056;2023-01-15T11:43:56;99655.00;;;7.81;79.90
69751;BME280;57335;52.288;6.056;2023-01-15T11:46:24;99663.59;;;7.82;80.13
69751;BME280;57335;52.288;6.056;2023-01-15T11:48:50;99667.97;;;7.88;81.14
69751;BME280;57335;52.288;6.056;2023-01-15T11:51:17;99668.47;;;7.96;80.86
69751;BME280;57335;52.288;6.056;2023-01-15T11:53:47;99669.13;;;8.10;78.72
69751;BME280;57335;52.288;6.056;2023-01-15T11:56:18;99684.00;;;8.10;77.62
69751;BME280;57335;52.288;6.056;2023-01-15T11:58:51;99671.22;;;8.02;79.48
69751;BME280;57335;52.288;6.056;2023-01-15T12:01:30;99692.66;;;7.85;80.04
69751;BME280;57335;52.288;6.056;2023-01-15T12:03:59;99700.31;;;7.62;81.76
69751;BME280;57335;52.288;6.056;2023-01-15T12:06:29;99688.25;;;7.42;83.77
69751;BME280;57335;52.288;6.056;2023-01-15T12:09:28;99687.56;;;7.28;83.56
69751;BME280;57335;52.288;6.056;2023-01-15T12:12:23;99680.84;;;7.14;83.45
69751;BME280;57335;52.288;6.056;2023-01-15T12:15:03;99680.34;;;6.98;84.59
69751;BME280;57335;52.288;6.056;2023-01-15T12:20:15;99663.03;;;6.79;86.04
69751;BME280;57335;52.288;6.056;2023-01-15T12:22:53;99689.28;;;6.77;85.94
69751;BME280;57335;52.288;6.056;2023-01-15T12:30:41;99669.13;;;6.66;87.00
69751;BME280;57335;52.288;6.056;2023-01-15T12:33:15;99663.94;;;6.66;86.39
69751;BME280;57335;52.288;6.056;2023-01-15T12:36:11;99646.53;;;6.60;86.61
69751;BME280;57335;52.288;6.056;2023-01-15T12:39:03;99652.53;;;6.61;85.62
69751;BME280;57335;52.288;6.056;2023-01-15T12:41:34;99660.94;;;6.63;86.14
69751;BME280;57335;52.288;6.056;2023-01-15T12:44:01;99645.78;;;6.53;87.15
69751;BME280;57335;52.288;6.056;2023-01-15T12:46:29;99645.97;;;6.51;87.43
69751;BME280;57335;52.288;6.056;2023-01-15T12:52:07;99653.97;;;6.56;91.49
69751;BME280;57335;52.288;6.056;2023-01-15T12:54:44;99663.00;;;6.54;91.28
69751;BME280;57335;52.288;6.056;2023-01-15T12:57:49;99662.81;;;6.49;91.88
69751;BME280;57335;52.288;6.056;2023-01-15T13:00:24;99682.44;;;6.45;93.97
69751;BME280;57335;52.288;6.056;2023-01-15T13:05:53;99686.56;;;6.14;98.22
69751;BME280;57335;52.288;6.056;2023-01-15T13:08:32;99701.81;;;6.04;99.99
69751;BME280;57335;52.288;6.056;2023-01-15T13:11:00;99709.22;;;5.93;100.00
69751;BME280;57335;52.288;6.056;2023-01-15T13:13:38;99678.78;;;5.87;100.00
69751;BME280;57335;52.288;6.056;2023-01-15T13:16:19;99692.63;;;5.88;100.00
69751;BME280;57335;52.288;6.056;2023-01-15T13:21:39;99688.84;;;5.70;100.00
69751;BME280;57335;52.288;6.056;2023-01-15T13:27:46;99706.41;;;5.75;100.00
69751;BME280;57335;52.288;6.056;2023-01-15T13:32:58;99704.44;;;5.70;100.00
69751;BME280;57335;52.288;6.056;2023-01-15T13:35:36;99705.63;;;5.74;100.00
69751;BME280;57335;52.288;6.056;2023-01-15T13:38:15;99704.03;;;5.80;100.00
69751;BME280;57335;52.288;6.056;2023-01-15T13:40:46;99689.00;;;5.89;100.00
69751;BME280;57335;52.288;6.056;2023-01-15T13:43:35;99703.81;;;5.95;100.00
69751;BME280;57335;52.288;6.056;2023-01-15T13:46:04;99683.84;;;5.95;100.00
69751;BME280;57335;52.288;6.056;2023-01-15T13:48:39;99700.00;;;6.04;100.00
69751;BME280;57335;52.288;6.056;2023-01-15T13:51:37;99712.97;;;6.11;100.00
69751;BME280;57335;52.288;6.056;2023-01-15T13:54:03;99708.56;;;6.18;100.00
69751;BME280;57335;52.288;6.056;2023-01-15T13:56:35;99700.19;;;6.16;100.00
69751;BME280;57335;52.288;6.056;2023-01-15T13:59:26;99706.16;;;6.16;100.00
69751;BME280;57335;52.288;6.056;2023-01-15T14:01:49;99716.56;;;6.16;100.00
69751;BME280;57335;52.288;6.056;2023-01-15T14:04:16;99700.56;;;6.13;99.56
69751;BME280;57335;52.288;6.056;2023-01-15T14:06:50;99706.59;;;6.13;99.34
69751;BME280;57335;52.288;6.056;2023-01-15T14:15:15;99726.00;;;6.11;98.70
69751;BME280;57335;52.288;6.056;2023-01-15T14:18:16;99713.00;;;6.04;98.62
69751;BME280;57335;52.288;6.056;2023-01-15T14:32:23;99732.22;;;5.96;98.27
69751;BME280;57335;52.288;6.056;2023-01-15T14:34:58;99727.03;;;5.96;98.83
69751;BME280;57335;52.288;6.056;2023-01-15T14:37:32;99738.44;;;5.95;98.87
69751;BME280;57335;52.288;6.056;2023-01-15T14:40:04;99743.66;;;5.95;99.16
69751;BME280;57335;52.288;6.056;2023-01-15T14:42:34;99728.19;;;5.87;99.09
69751;BME280;57335;52.288;6.056;2023-01-15T14:47:46;99749.22;;;5.99;99.99
69751;BME280;57335;52.288;6.056;2023-01-15T14:50:41;99747.81;;;6.03;99.44